Dyess Air Force Base
KDYS : now visible

Airfield :











YOU CAN JOIN US ON...

 
LOGIN :

Register | Disclaimer

   EN    FR    IT 

 









Legend :    VFR   Marginal VFR   IFR   Intensive IFR   Very Intensive IFR
Visi :
Ceiling :
>= 8 km
>= 3000ft
5 to 8 km
1000 to 3000 ft
1500m to 5 km
500 to 1000 ft
800 to 1500m
200 to 500 ft
< 800m
< 200 ft
Symbols :   Thunderstorms  Fog  Heavy snow  Heavy precipitations  Wind > 20 kt






- Airport Elevation : 1789 ft


KDYS - Dyess Air Force Base

CURRENT METAR :
  • 281556Z AUTO 34007KT 9SM CLR 27/14 A3001 RMK AO2 SLP123 T02650139

EXPIRED METARs :
  • 281456Z AUTO 32008KT 10SM CLR 24/14 A3000 RMK AO2 SLP119 T02400141 51018
  • 281356Z AUTO 33006KT 10SM CLR 21/15 A2999 RMK AO2 SLP118 T02050146

TAF TAF KDYS
Valid from the 28 at 08:00 until the 29 at 14:00 UTC


280800Z 2808/2914 18006KT 9999 FEW110 QNH2991INS
BECMG 2819/2820 32010G15KT 9999 FEW110 QNH3001INS
BECMG 2904/2905 VRB06KT 9999 FEW210 QNH3014INS TX30/2819Z TN16/2812Z
KZFW FIR / North America



MET'MAP, your aeronautical weather chart ! - Copyright ORBIFLY December 2007 - Disclaimer

ORBIFLY MET'MAP TEAM :

Programming & Development : Alexandra Zaïnal
Concept & original design : Baudouin d'Aumeries
Assistance for programming : Marc-Olivier Méhu
Technical & hardware support : Manuel Goepfert

Contact : metmap@orbifly.com




SOURCES & CREDITS :

   NOAA       Earth
Advisory